»·PEaware :: N172TT KVNY-KSNA

N172TT :: KVNY-KSNA

FLIGHT INFORMATION

Flight Status: Arrived
Operator: Privately registered:
United States
More flights under this callsign
Pilot: Thomas T. (19955)
Aircraft: CESSNA 172 SKYHAWK
(C172)
More flights by this aircraft type
Origin: KVNY Van Nuys
United States
Destination: KSNA John Wayne-Orange Co
United States
More flights between these airports :: More routes between these airports
Route: +
File this flight plan on PilotEdge
Remarks: FF
Altitude:
(Current/Filed)
5,500ft
Speed:
(Current/Filed)
0kts
Departed: 25-Aug-18 12:50 PM
Arrived: 25-Aug-18 01:35 PM
Distance/Time
Traveled:
44nm/0:45
Distance/Time
To Go:
Arrived

Flight Plot

Page will automatically refresh every two minutes.


Map Options




Map Legend


Flown Route
Filed Route
Departure Airport
Arrival Airport
Navaid (VOR, NDB)
Fix

Horizontal Profiles

Position Reports

Time Latitude Longitude Heading Altitude Ground
Speed
25-Aug-18 12:39 34.209407 -118.491822 84 806ft 0kts
25-Aug-18 12:40 34.209407 -118.491822 84 806ft 0kts
25-Aug-18 12:41 34.209407 -118.491822 84 806ft 0kts
25-Aug-18 12:42 34.209433 -118.491705 61 806ft 2kts
25-Aug-18 12:43 34.211735 -118.491734 357 806ft 10kts
25-Aug-18 12:44 34.214656 -118.492030 351 806ft 11kts
25-Aug-18 12:45 34.217663 -118.492300 356 806ft 7kts
25-Aug-18 12:46 34.219187 -118.492369 120 806ft 0kts
25-Aug-18 12:47 34.219187 -118.492369 120 806ft 0kts
25-Aug-18 12:48 34.219187 -118.492369 120 806ft 0kts
25-Aug-18 12:49 34.219187 -118.492369 120 806ft 0kts
25-Aug-18 12:50 34.218939 -118.491912 120 806ft 8kts
25-Aug-18 12:51 34.212081 -118.490571 175 892ft 76kts
25-Aug-18 12:52 34.187789 -118.487499 174 1513ft 98kts
25-Aug-18 12:53 34.174088 -118.510159 263 2210ft 92kts
25-Aug-18 12:54 34.169741 -118.537714 241 2968ft 95kts
25-Aug-18 12:55 34.155831 -118.571594 274 2971ft 123kts
25-Aug-18 12:56 34.163440 -118.602098 240 3875ft 71kts
25-Aug-18 12:57 34.149184 -118.592509 122 4436ft 99kts
25-Aug-18 12:58 34.133384 -118.560871 116 4826ft 112kts
25-Aug-18 12:59 34.117284 -118.530703 141 5359ft 113kts
25-Aug-18 13:00 34.091386 -118.507525 143 5492ft 116kts
25-Aug-18 13:01 34.063721 -118.485581 155 5491ft 120kts
25-Aug-18 13:02 34.031702 -118.473885 167 5490ft 121kts
25-Aug-18 13:03 33.999164 -118.463816 163 5490ft 121kts
25-Aug-18 13:04 33.968193 -118.452502 163 5489ft 121kts
25-Aug-18 13:05 33.937380 -118.437169 143 5490ft 121kts
25-Aug-18 13:06 33.911884 -118.410880 139 5490ft 119kts
25-Aug-18 13:07 33.888751 -118.386741 139 5485ft 109kts
25-Aug-18 13:08 33.866004 -118.362932 138 5484ft 107kts
25-Aug-18 13:09 33.843494 -118.339313 138 5484ft 107kts
25-Aug-18 13:10 33.820976 -118.315629 138 5484ft 107kts
25-Aug-18 13:11 33.798437 -118.291867 138 5484ft 107kts
25-Aug-18 13:12 33.776186 -118.268353 138 5484ft 107kts
25-Aug-18 13:13 33.753706 -118.244543 138 5418ft 112kts
25-Aug-18 13:14 33.731502 -118.215327 129 4682ft 124kts
25-Aug-18 13:15 33.718656 -118.179272 96 3878ft 118kts
25-Aug-18 13:16 33.715058 -118.140288 96 3076ft 117kts
25-Aug-18 13:17 33.708462 -118.103339 110 2531ft 101kts
25-Aug-18 13:18 33.697233 -118.074634 117 2526ft 91kts
25-Aug-18 13:19 33.685269 -118.047659 117 2526ft 92kts
25-Aug-18 13:20 33.688603 -118.021275 45 2527ft 92kts
25-Aug-18 13:21 33.706633 -117.999273 45 2527ft 92kts
25-Aug-18 13:22 33.712125 -117.973516 130 2519ft 93kts
25-Aug-18 13:23 33.698485 -117.947058 135 2289ft 105kts
25-Aug-18 13:24 33.678106 -117.922590 133 1538ft 104kts
25-Aug-18 13:25 33.679067 -117.893883 65 1146ft 76kts
25-Aug-18 13:26 33.695245 -117.883867 0 1055ft 87kts
25-Aug-18 13:27 33.721879 -117.883522 356 1057ft 100kts
25-Aug-18 13:28 33.742511 -117.893267 279 1527ft 73kts
25-Aug-18 13:29 33.724237 -117.913983 214 1894ft 113kts
25-Aug-18 13:30 33.697141 -117.934676 186 1893ft 117kts
25-Aug-18 13:31 33.665976 -117.927115 129 1891ft 117kts
25-Aug-18 13:32 33.662746 -117.887552 103 1082ft 128kts
25-Aug-18 13:33 33.683055 -117.872721 23 929ft 87kts
25-Aug-18 13:34 33.698285 -117.859297 103 700ft 64kts
25-Aug-18 13:35 33.682716 -117.864307 207 149ft 62kts
25-Aug-18 13:36 33.678073 -117.868669 274 60ft 7kts
25-Aug-18 13:37 33.678158 -117.869137 116 60ft 0kts

Navigation Log

Ident Type
1. KVNY Airport
2. KSNA Airport